sensor_id;sensor_type;location;lat;lon;timestamp;P1;durP1;ratioP1;P2;durP2;ratioP2
46745;SDS011;32493;50.514;9.678;2023-07-30T00:01:13;11.02;;;4.70;;
46745;SDS011;32493;50.514;9.678;2023-07-30T00:03:19;6.28;;;4.03;;
46745;SDS011;32493;50.514;9.678;2023-07-30T00:05:28;6.22;;;4.13;;
46745;SDS011;32493;50.514;9.678;2023-07-30T00:07:37;6.70;;;4.18;;
46745;SDS011;32493;50.514;9.678;2023-07-30T00:09:45;6.53;;;4.20;;
46745;SDS011;32493;50.514;9.678;2023-07-30T00:11:51;8.38;;;4.18;;
46745;SDS011;32493;50.514;9.678;2023-07-30T00:13:57;7.10;;;3.95;;
46745;SDS011;32493;50.514;9.678;2023-07-30T00:16:04;8.55;;;4.32;;
46745;SDS011;32493;50.514;9.678;2023-07-30T00:18:10;7.82;;;4.50;;
46745;SDS011;32493;50.514;9.678;2023-07-30T00:20:17;6.90;;;4.18;;
46745;SDS011;32493;50.514;9.678;2023-07-30T00:22:23;11.20;;;4.83;;
46745;SDS011;32493;50.514;9.678;2023-07-30T00:24:31;8.98;;;4.88;;
46745;SDS011;32493;50.514;9.678;2023-07-30T00:26:38;10.85;;;4.80;;
46745;SDS011;32493;50.514;9.678;2023-07-30T00:28:44;15.05;;;5.00;;
46745;SDS011;32493;50.514;9.678;2023-07-30T00:30:51;10.95;;;5.82;;
46745;SDS011;32493;50.514;9.678;2023-07-30T00:32:58;10.23;;;4.80;;
46745;SDS011;32493;50.514;9.678;2023-07-30T00:35:05;11.40;;;4.85;;
46745;SDS011;32493;50.514;9.678;2023-07-30T00:37:14;10.13;;;4.82;;
46745;SDS011;32493;50.514;9.678;2023-07-30T00:39:20;11.13;;;5.10;;
46745;SDS011;32493;50.514;9.678;2023-07-30T00:41:29;6.90;;;4.70;;
46745;SDS011;32493;50.514;9.678;2023-07-30T00:43:37;12.10;;;4.88;;
46745;SDS011;32493;50.514;9.678;2023-07-30T00:45:50;11.23;;;5.20;;
46745;SDS011;32493;50.514;9.678;2023-07-30T00:47:56;9.00;;;4.80;;
46745;SDS011;32493;50.514;9.678;2023-07-30T00:49:59;9.00;;;5.10;;
46745;SDS011;32493;50.514;9.678;2023-07-30T00:52:06;7.50;;;4.80;;
46745;SDS011;32493;50.514;9.678;2023-07-30T00:54:14;11.45;;;4.82;;
46745;SDS011;32493;50.514;9.678;2023-07-30T00:56:22;13.48;;;5.93;;
46745;SDS011;32493;50.514;9.678;2023-07-30T00:58:31;9.52;;;5.78;;
46745;SDS011;32493;50.514;9.678;2023-07-30T01:00:38;11.77;;;6.15;;
46745;SDS011;32493;50.514;9.678;2023-07-30T01:02:46;11.93;;;5.85;;
46745;SDS011;32493;50.514;9.678;2023-07-30T01:04:49;9.57;;;5.80;;
46745;SDS011;32493;50.514;9.678;2023-07-30T01:06:57;14.13;;;6.38;;
46745;SDS011;32493;50.514;9.678;2023-07-30T01:09:05;10.15;;;6.50;;
46745;SDS011;32493;50.514;9.678;2023-07-30T01:11:13;8.80;;;6.00;;
46745;SDS011;32493;50.514;9.678;2023-07-30T01:13:22;8.20;;;5.82;;
46745;SDS011;32493;50.514;9.678;2023-07-30T01:15:32;9.88;;;6.18;;
46745;SDS011;32493;50.514;9.678;2023-07-30T01:17:40;10.70;;;5.68;;
46745;SDS011;32493;50.514;9.678;2023-07-30T01:19:47;10.20;;;6.00;;
46745;SDS011;32493;50.514;9.678;2023-07-30T01:22:00;9.48;;;5.68;;
46745;SDS011;32493;50.514;9.678;2023-07-30T01:24:06;7.80;;;5.57;;
46745;SDS011;32493;50.514;9.678;2023-07-30T01:26:12;9.75;;;5.05;;
46745;SDS011;32493;50.514;9.678;2023-07-30T01:28:28;8.65;;;5.10;;
46745;SDS011;32493;50.514;9.678;2023-07-30T01:30:41;8.60;;;4.97;;
46745;SDS011;32493;50.514;9.678;2023-07-30T01:32:49;11.80;;;5.43;;
46745;SDS011;32493;50.514;9.678;2023-07-30T01:34:57;8.55;;;5.03;;
46745;SDS011;32493;50.514;9.678;2023-07-30T01:37:08;6.78;;;5.10;;
46745;SDS011;32493;50.514;9.678;2023-07-30T01:39:14;8.05;;;5.50;;
46745;SDS011;32493;50.514;9.678;2023-07-30T01:41:22;10.23;;;5.13;;
46745;SDS011;32493;50.514;9.678;2023-07-30T01:43:28;10.98;;;5.30;;
46745;SDS011;32493;50.514;9.678;2023-07-30T01:45:34;12.95;;;5.40;;
46745;SDS011;32493;50.514;9.678;2023-07-30T01:47:45;11.20;;;5.55;;
46745;SDS011;32493;50.514;9.678;2023-07-30T01:49:54;9.25;;;5.05;;
46745;SDS011;32493;50.514;9.678;2023-07-30T01:52:00;17.08;;;5.20;;
46745;SDS011;32493;50.514;9.678;2023-07-30T01:54:06;9.13;;;5.70;;
46745;SDS011;32493;50.514;9.678;2023-07-30T01:56:11;9.05;;;5.43;;
46745;SDS011;32493;50.514;9.678;2023-07-30T01:58:19;7.10;;;4.93;;
46745;SDS011;32493;50.514;9.678;2023-07-30T02:00:30;10.75;;;5.25;;
46745;SDS011;32493;50.514;9.678;2023-07-30T02:02:37;15.23;;;5.03;;
46745;SDS011;32493;50.514;9.678;2023-07-30T02:04:43;8.90;;;5.22;;
46745;SDS011;32493;50.514;9.678;2023-07-30T02:06:49;8.15;;;5.05;;
46745;SDS011;32493;50.514;9.678;2023-07-30T02:08:55;7.53;;;4.85;;
46745;SDS011;32493;50.514;9.678;2023-07-30T02:11:05;9.93;;;5.13;;
46745;SDS011;32493;50.514;9.678;2023-07-30T02:13:10;10.38;;;5.10;;
46745;SDS011;32493;50.514;9.678;2023-07-30T02:15:17;8.00;;;4.28;;
46745;SDS011;32493;50.514;9.678;2023-07-30T02:17:23;8.68;;;5.35;;
46745;SDS011;32493;50.514;9.678;2023-07-30T02:21:36;8.75;;;4.63;;
46745;SDS011;32493;50.514;9.678;2023-07-30T02:23:45;9.88;;;4.72;;
46745;SDS011;32493;50.514;9.678;2023-07-30T02:25:51;8.35;;;4.53;;
46745;SDS011;32493;50.514;9.678;2023-07-30T02:28:01;7.30;;;4.38;;
46745;SDS011;32493;50.514;9.678;2023-07-30T02:30:09;12.25;;;4.40;;
46745;SDS011;32493;50.514;9.678;2023-07-30T02:32:16;9.73;;;4.70;;
46745;SDS011;32493;50.514;9.678;2023-07-30T02:34:24;11.80;;;5.25;;
46745;SDS011;32493;50.514;9.678;2023-07-30T02:36:35;11.18;;;5.20;;
46745;SDS011;32493;50.514;9.678;2023-07-30T02:38:38;7.45;;;4.50;;
46745;SDS011;32493;50.514;9.678;2023-07-30T02:40:44;5.35;;;4.40;;
46745;SDS011;32493;50.514;9.678;2023-07-30T02:42:50;9.80;;;5.07;;
46745;SDS011;32493;50.514;9.678;2023-07-30T02:44:59;7.72;;;4.38;;
46745;SDS011;32493;50.514;9.678;2023-07-30T02:47:05;7.28;;;5.00;;
46745;SDS011;32493;50.514;9.678;2023-07-30T02:49:11;8.85;;;4.50;;
46745;SDS011;32493;50.514;9.678;2023-07-30T02:51:18;8.20;;;3.25;;
46745;SDS011;32493;50.514;9.678;2023-07-30T02:53:29;3.67;;;2.38;;
46745;SDS011;32493;50.514;9.678;2023-07-30T02:55:35;4.78;;;2.60;;
46745;SDS011;32493;50.514;9.678;2023-07-30T02:57:39;2.85;;;2.10;;
46745;SDS011;32493;50.514;9.678;2023-07-30T02:59:59;3.78;;;2.20;;
46745;SDS011;32493;50.514;9.678;2023-07-30T03:02:06;4.75;;;2.20;;
46745;SDS011;32493;50.514;9.678;2023-07-30T03:04:12;5.72;;;2.20;;
46745;SDS011;32493;50.514;9.678;2023-07-30T03:06:18;2.85;;;1.95;;
46745;SDS011;32493;50.514;9.678;2023-07-30T03:08:25;2.53;;;1.92;;
46745;SDS011;32493;50.514;9.678;2023-07-30T03:10:33;4.07;;;2.42;;
46745;SDS011;32493;50.514;9.678;2023-07-30T03:12:41;4.82;;;2.53;;
46745;SDS011;32493;50.514;9.678;2023-07-30T03:14:47;4.18;;;2.47;;
46745;SDS011;32493;50.514;9.678;2023-07-30T03:16:55;3.88;;;2.42;;
46745;SDS011;32493;50.514;9.678;2023-07-30T03:19:01;3.53;;;2.47;;
46745;SDS011;32493;50.514;9.678;2023-07-30T03:21:08;4.45;;;2.42;;
46745;SDS011;32493;50.514;9.678;2023-07-30T03:23:16;4.57;;;2.40;;
46745;SDS011;32493;50.514;9.678;2023-07-30T03:25:22;6.70;;;2.50;;
46745;SDS011;32493;50.514;9.678;2023-07-30T03:27:28;3.38;;;2.63;;
46745;SDS011;32493;50.514;9.678;2023-07-30T03:29:34;6.35;;;2.58;;
46745;SDS011;32493;50.514;9.678;2023-07-30T03:31:40;7.93;;;3.00;;
46745;SDS011;32493;50.514;9.678;2023-07-30T03:33:48;6.10;;;2.80;;
46745;SDS011;32493;50.514;9.678;2023-07-30T03:35:55;5.35;;;2.88;;
46745;SDS011;32493;50.514;9.678;2023-07-30T03:38:01;7.45;;;3.10;;
46745;SDS011;32493;50.514;9.678;2023-07-30T03:40:09;4.50;;;3.45;;
46745;SDS011;32493;50.514;9.678;2023-07-30T03:42:17;9.10;;;4.30;;
46745;SDS011;32493;50.514;9.678;2023-07-30T03:44:23;5.00;;;3.60;;
46745;SDS011;32493;50.514;9.678;2023-07-30T03:46:30;5.28;;;3.85;;
46745;SDS011;32493;50.514;9.678;2023-07-30T03:48:33;6.40;;;3.95;;
46745;SDS011;32493;50.514;9.678;2023-07-30T03:50:52;11.05;;;3.30;;
46745;SDS011;32493;50.514;9.678;2023-07-30T03:52:58;6.22;;;3.40;;
46745;SDS011;32493;50.514;9.678;2023-07-30T03:55:04;11.35;;;4.43;;
46745;SDS011;32493;50.514;9.678;2023-07-30T03:57:11;7.95;;;3.47;;
46745;SDS011;32493;50.514;9.678;2023-07-30T03:59:17;7.93;;;4.07;;
46745;SDS011;32493;50.514;9.678;2023-07-30T04:01:22;6.03;;;3.85;;
46745;SDS011;32493;50.514;9.678;2023-07-30T04:03:31;13.50;;;3.63;;
46745;SDS011;32493;50.514;9.678;2023-07-30T04:05:38;8.27;;;4.07;;
46745;SDS011;32493;50.514;9.678;2023-07-30T04:07:47;10.68;;;4.65;;
46745;SDS011;32493;50.514;9.678;2023-07-30T04:09:57;15.15;;;3.92;;
46745;SDS011;32493;50.514;9.678;2023-07-30T04:12:03;9.90;;;4.43;;
46745;SDS011;32493;50.514;9.678;2023-07-30T04:16:17;8.35;;;4.20;;
46745;SDS011;32493;50.514;9.678;2023-07-30T04:18:21;8.23;;;4.85;;
46745;SDS011;32493;50.514;9.678;2023-07-30T04:20:30;5.53;;;4.47;;
46745;SDS011;32493;50.514;9.678;2023-07-30T04:22:34;9.00;;;4.22;;
46745;SDS011;32493;50.514;9.678;2023-07-30T04:24:46;8.20;;;4.55;;
46745;SDS011;32493;50.514;9.678;2023-07-30T04:26:52;6.90;;;4.57;;
46745;SDS011;32493;50.514;9.678;2023-07-30T04:28:57;10.52;;;4.60;;
46745;SDS011;32493;50.514;9.678;2023-07-30T04:31:05;6.45;;;4.00;;
46745;SDS011;32493;50.514;9.678;2023-07-30T04:33:11;8.73;;;3.70;;
46745;SDS011;32493;50.514;9.678;2023-07-30T04:35:17;7.95;;;4.45;;
46745;SDS011;32493;50.514;9.678;2023-07-30T04:37:26;8.10;;;3.95;;
46745;SDS011;32493;50.514;9.678;2023-07-30T04:39:32;8.70;;;3.90;;
46745;SDS011;32493;50.514;9.678;2023-07-30T04:41:43;5.57;;;3.50;;
46745;SDS011;32493;50.514;9.678;2023-07-30T04:43:49;4.57;;;3.30;;
46745;SDS011;32493;50.514;9.678;2023-07-30T04:45:55;5.00;;;3.17;;
46745;SDS011;32493;50.514;9.678;2023-07-30T04:48:01;10.07;;;3.97;;
46745;SDS011;32493;50.514;9.678;2023-07-30T04:50:08;3.72;;;3.22;;
46745;SDS011;32493;50.514;9.678;2023-07-30T04:52:14;5.13;;;3.03;;
46745;SDS011;32493;50.514;9.678;2023-07-30T04:54:24;5.28;;;3.53;;
46745;SDS011;32493;50.514;9.678;2023-07-30T04:56:30;4.05;;;3.38;;
46745;SDS011;32493;50.514;9.678;2023-07-30T04:58:39;6.20;;;3.15;;
46745;SDS011;32493;50.514;9.678;2023-07-30T05:00:45;4.93;;;3.22;;
46745;SDS011;32493;50.514;9.678;2023-07-30T05:02:51;7.68;;;3.40;;
46745;SDS011;32493;50.514;9.678;2023-07-30T05:04:57;4.55;;;3.17;;
46745;SDS011;32493;50.514;9.678;2023-07-30T05:07:00;3.47;;;3.05;;
46745;SDS011;32493;50.514;9.678;2023-07-30T05:09:08;9.50;;;3.50;;
46745;SDS011;32493;50.514;9.678;2023-07-30T05:11:16;4.35;;;3.20;;
46745;SDS011;32493;50.514;9.678;2023-07-30T05:13:21;8.18;;;3.90;;
46745;SDS011;32493;50.514;9.678;2023-07-30T05:15:27;6.45;;;3.60;;
46745;SDS011;32493;50.514;9.678;2023-07-30T05:17:33;10.27;;;3.50;;
46745;SDS011;32493;50.514;9.678;2023-07-30T05:19:41;5.57;;;3.65;;
46745;SDS011;32493;50.514;9.678;2023-07-30T05:21:49;8.02;;;3.85;;
46745;SDS011;32493;50.514;9.678;2023-07-30T05:23:54;7.03;;;4.00;;
46745;SDS011;32493;50.514;9.678;2023-07-30T05:26:00;7.20;;;4.20;;
46745;SDS011;32493;50.514;9.678;2023-07-30T05:28:06;4.28;;;3.80;;
46745;SDS011;32493;50.514;9.678;2023-07-30T05:30:14;7.30;;;4.00;;
46745;SDS011;32493;50.514;9.678;2023-07-30T05:32:22;9.38;;;4.43;;
46745;SDS011;32493;50.514;9.678;2023-07-30T05:34:28;5.03;;;4.53;;
46745;SDS011;32493;50.514;9.678;2023-07-30T05:36:31;5.03;;;4.13;;
46745;SDS011;32493;50.514;9.678;2023-07-30T05:38:41;8.13;;;4.55;;
46745;SDS011;32493;50.514;9.678;2023-07-30T05:40:47;7.95;;;4.75;;
46745;SDS011;32493;50.514;9.678;2023-07-30T05:42:53;4.88;;;3.92;;
46745;SDS011;32493;50.514;9.678;2023-07-30T05:45:03;9.52;;;4.32;;
46745;SDS011;32493;50.514;9.678;2023-07-30T05:47:09;7.45;;;4.22;;
46745;SDS011;32493;50.514;9.678;2023-07-30T05:49:19;8.27;;;3.90;;
46745;SDS011;32493;50.514;9.678;2023-07-30T05:51:24;3.83;;;3.38;;
46745;SDS011;32493;50.514;9.678;2023-07-30T05:53:32;3.65;;;3.30;;
46745;SDS011;32493;50.514;9.678;2023-07-30T05:55:40;7.35;;;3.33;;
46745;SDS011;32493;50.514;9.678;2023-07-30T05:57:45;9.73;;;3.58;;
46745;SDS011;32493;50.514;9.678;2023-07-30T05:59:48;5.38;;;3.15;;
46745;SDS011;32493;50.514;9.678;2023-07-30T06:01:55;6.93;;;3.20;;
46745;SDS011;32493;50.514;9.678;2023-07-30T06:04:03;3.90;;;2.90;;
46745;SDS011;32493;50.514;9.678;2023-07-30T06:06:12;5.80;;;3.20;;
46745;SDS011;32493;50.514;9.678;2023-07-30T06:08:19;4.05;;;3.10;;
46745;SDS011;32493;50.514;9.678;2023-07-30T06:10:27;4.38;;;2.90;;
46745;SDS011;32493;50.514;9.678;2023-07-30T06:12:33;6.72;;;3.20;;
46745;SDS011;32493;50.514;9.678;2023-07-30T06:14:39;6.65;;;3.22;;
46745;SDS011;32493;50.514;9.678;2023-07-30T06:16:45;3.28;;;2.80;;
46745;SDS011;32493;50.514;9.678;2023-07-30T06:18:51;5.63;;;2.88;;
46745;SDS011;32493;50.514;9.678;2023-07-30T06:20:57;4.65;;;2.60;;
46745;SDS011;32493;50.514;9.678;2023-07-30T06:23:07;3.53;;;2.35;;
46745;SDS011;32493;50.514;9.678;2023-07-30T06:25:12;4.03;;;2.78;;
46745;SDS011;32493;50.514;9.678;2023-07-30T06:27:19;3.70;;;2.88;;
46745;SDS011;32493;50.514;9.678;2023-07-30T06:31:31;6.40;;;2.70;;
46745;SDS011;32493;50.514;9.678;2023-07-30T06:33:38;3.67;;;2.67;;
46745;SDS011;32493;50.514;9.678;2023-07-30T06:35:43;5.30;;;2.50;;
46745;SDS011;32493;50.514;9.678;2023-07-30T06:37:48;3.92;;;2.10;;
46745;SDS011;32493;50.514;9.678;2023-07-30T06:39:58;4.10;;;2.30;;
46745;SDS011;32493;50.514;9.678;2023-07-30T06:42:06;3.67;;;1.88;;
46745;SDS011;32493;50.514;9.678;2023-07-30T06:44:12;8.18;;;2.00;;
46745;SDS011;32493;50.514;9.678;2023-07-30T06:46:18;2.70;;;1.70;;
46745;SDS011;32493;50.514;9.678;2023-07-30T06:48:26;2.13;;;1.60;;
46745;SDS011;32493;50.514;9.678;2023-07-30T06:50:34;4.65;;;2.00;;
46745;SDS011;32493;50.514;9.678;2023-07-30T06:52:40;5.10;;;2.17;;
46745;SDS011;32493;50.514;9.678;2023-07-30T06:54:46;4.18;;;2.20;;
46745;SDS011;32493;50.514;9.678;2023-07-30T06:56:58;3.53;;;1.90;;
46745;SDS011;32493;50.514;9.678;2023-07-30T06:59:04;6.55;;;2.20;;
46745;SDS011;32493;50.514;9.678;2023-07-30T07:01:10;4.88;;;2.33;;
46745;SDS011;32493;50.514;9.678;2023-07-30T07:03:18;4.60;;;1.83;;
46745;SDS011;32493;50.514;9.678;2023-07-30T07:05:23;4.20;;;2.33;;
46745;SDS011;32493;50.514;9.678;2023-07-30T07:07:30;5.10;;;1.88;;
46745;SDS011;32493;50.514;9.678;2023-07-30T07:09:36;5.70;;;2.00;;
46745;SDS011;32493;50.514;9.678;2023-07-30T07:11:42;2.63;;;2.05;;
46745;SDS011;32493;50.514;9.678;2023-07-30T07:13:51;4.95;;;2.03;;
46745;SDS011;32493;50.514;9.678;2023-07-30T07:15:58;4.47;;;1.77;;
46745;SDS011;32493;50.514;9.678;2023-07-30T07:18:04;3.97;;;1.70;;
46745;SDS011;32493;50.514;9.678;2023-07-30T07:20:10;3.47;;;1.80;;
46745;SDS011;32493;50.514;9.678;2023-07-30T07:22:17;4.63;;;2.40;;
46745;SDS011;32493;50.514;9.678;2023-07-30T07:24:24;3.63;;;2.20;;
46745;SDS011;32493;50.514;9.678;2023-07-30T07:26:29;3.65;;;1.77;;
46745;SDS011;32493;50.514;9.678;2023-07-30T07:28:37;5.28;;;2.05;;
46745;SDS011;32493;50.514;9.678;2023-07-30T07:30:46;3.25;;;1.80;;
46745;SDS011;32493;50.514;9.678;2023-07-30T07:32:52;3.80;;;1.60;;
46745;SDS011;32493;50.514;9.678;2023-07-30T07:34:58;3.30;;;1.73;;
46745;SDS011;32493;50.514;9.678;2023-07-30T07:37:04;10.25;;;2.22;;
46745;SDS011;32493;50.514;9.678;2023-07-30T07:39:10;2.53;;;1.55;;
46745;SDS011;32493;50.514;9.678;2023-07-30T07:41:19;3.40;;;1.70;;
46745;SDS011;32493;50.514;9.678;2023-07-30T07:43:29;3.92;;;1.75;;
46745;SDS011;32493;50.514;9.678;2023-07-30T07:45:35;3.40;;;1.70;;
46745;SDS011;32493;50.514;9.678;2023-07-30T07:47:45;7.35;;;1.92;;
46745;SDS011;32493;50.514;9.678;2023-07-30T07:49:52;2.92;;;1.90;;
46745;SDS011;32493;50.514;9.678;2023-07-30T07:51:57;6.68;;;2.40;;
46745;SDS011;32493;50.514;9.678;2023-07-30T07:54:03;4.07;;;1.83;;
46745;SDS011;32493;50.514;9.678;2023-07-30T07:56:09;5.43;;;1.90;;
46745;SDS011;32493;50.514;9.678;2023-07-30T07:58:16;6.13;;;1.88;;
46745;SDS011;32493;50.514;9.678;2023-07-30T08:00:24;5.57;;;1.85;;
46745;SDS011;32493;50.514;9.678;2023-07-30T08:02:30;2.97;;;1.90;;
46745;SDS011;32493;50.514;9.678;2023-07-30T08:04:38;6.80;;;2.00;;
46745;SDS011;32493;50.514;9.678;2023-07-30T08:06:44;5.07;;;1.90;;
46745;SDS011;32493;50.514;9.678;2023-07-30T08:08:50;5.50;;;1.90;;
46745;SDS011;32493;50.514;9.678;2023-07-30T08:10:58;4.10;;;1.75;;
46745;SDS011;32493;50.514;9.678;2023-07-30T08:13:10;3.40;;;1.40;;
46745;SDS011;32493;50.514;9.678;2023-07-30T08:15:16;6.57;;;1.65;;
46745;SDS011;32493;50.514;9.678;2023-07-30T08:17:23;2.55;;;1.70;;
46745;SDS011;32493;50.514;9.678;2023-07-30T08:19:30;6.03;;;1.67;;
46745;SDS011;32493;50.514;9.678;2023-07-30T08:21:45;5.05;;;1.40;;
46745;SDS011;32493;50.514;9.678;2023-07-30T08:23:50;3.85;;;1.73;;
46745;SDS011;32493;50.514;9.678;2023-07-30T08:25:57;7.10;;;1.75;;
46745;SDS011;32493;50.514;9.678;2023-07-30T08:28:05;4.18;;;1.55;;
46745;SDS011;32493;50.514;9.678;2023-07-30T08:30:11;2.88;;;1.50;;
46745;SDS011;32493;50.514;9.678;2023-07-30T08:32:17;2.47;;;1.50;;
46745;SDS011;32493;50.514;9.678;2023-07-30T08:34:26;6.55;;;1.98;;
46745;SDS011;32493;50.514;9.678;2023-07-30T08:36:34;4.07;;;1.50;;
46745;SDS011;32493;50.514;9.678;2023-07-30T08:38:55;4.57;;;1.40;;
46745;SDS011;32493;50.514;9.678;2023-07-30T08:41:02;3.58;;;1.50;;
46745;SDS011;32493;50.514;9.678;2023-07-30T08:43:08;9.25;;;1.70;;
46745;SDS011;32493;50.514;9.678;2023-07-30T08:45:14;5.35;;;1.50;;
46745;SDS011;32493;50.514;9.678;2023-07-30T08:47:20;4.88;;;1.88;;
46745;SDS011;32493;50.514;9.678;2023-07-30T08:49:28;3.17;;;1.42;;
46745;SDS011;32493;50.514;9.678;2023-07-30T08:51:37;2.55;;;1.70;;
46745;SDS011;32493;50.514;9.678;2023-07-30T08:53:46;2.78;;;1.55;;
46745;SDS011;32493;50.514;9.678;2023-07-30T08:55:54;4.97;;;1.83;;
46745;SDS011;32493;50.514;9.678;2023-07-30T08:58:02;2.75;;;1.60;;
46745;SDS011;32493;50.514;9.678;2023-07-30T09:00:09;3.80;;;1.65;;
46745;SDS011;32493;50.514;9.678;2023-07-30T09:02:20;4.07;;;2.00;;
46745;SDS011;32493;50.514;9.678;2023-07-30T09:04:35;5.15;;;1.73;;
46745;SDS011;32493;50.514;9.678;2023-07-30T09:06:41;3.80;;;1.95;;
46745;SDS011;32493;50.514;9.678;2023-07-30T09:08:48;5.53;;;1.63;;
46745;SDS011;32493;50.514;9.678;2023-07-30T09:10:59;5.47;;;2.00;;
46745;SDS011;32493;50.514;9.678;2023-07-30T09:13:14;4.32;;;2.08;;
46745;SDS011;32493;50.514;9.678;2023-07-30T09:15:30;2.72;;;1.75;;
46745;SDS011;32493;50.514;9.678;2023-07-30T09:17:39;4.90;;;2.08;;
46745;SDS011;32493;50.514;9.678;2023-07-30T09:19:48;4.82;;;1.88;;
46745;SDS011;32493;50.514;9.678;2023-07-30T09:21:54;2.95;;;1.63;;
46745;SDS011;32493;50.514;9.678;2023-07-30T09:24:01;4.68;;;1.80;;
46745;SDS011;32493;50.514;9.678;2023-07-30T09:26:12;2.22;;;1.73;;
46745;SDS011;32493;50.514;9.678;2023-07-30T09:28:18;3.72;;;1.65;;
46745;SDS011;32493;50.514;9.678;2023-07-30T09:30:24;4.68;;;1.50;;
46745;SDS011;32493;50.514;9.678;2023-07-30T09:32:31;3.72;;;1.65;;
46745;SDS011;32493;50.514;9.678;2023-07-30T09:34:40;4.68;;;1.65;;
46745;SDS011;32493;50.514;9.678;2023-07-30T09:36:49;2.92;;;1.30;;
46745;SDS011;32493;50.514;9.678;2023-07-30T09:38:59;4.10;;;1.40;;
46745;SDS011;32493;50.514;9.678;2023-07-30T09:41:07;3.50;;;1.60;;
46745;SDS011;32493;50.514;9.678;2023-07-30T09:43:16;2.57;;;1.20;;
46745;SDS011;32493;50.514;9.678;2023-07-30T09:45:23;2.13;;;1.30;;
46745;SDS011;32493;50.514;9.678;2023-07-30T09:47:30;1.70;;;1.33;;
46745;SDS011;32493;50.514;9.678;2023-07-30T09:49:38;2.45;;;1.45;;
46745;SDS011;32493;50.514;9.678;2023-07-30T09:51:43;2.25;;;1.08;;
46745;SDS011;32493;50.514;9.678;2023-07-30T09:53:49;3.22;;;1.25;;
46745;SDS011;32493;50.514;9.678;2023-07-30T09:55:56;2.77;;;1.20;;
46745;SDS011;32493;50.514;9.678;2023-07-30T09:57:59;1.75;;;1.05;;
46745;SDS011;32493;50.514;9.678;2023-07-30T10:00:08;4.13;;;1.35;;
46745;SDS011;32493;50.514;9.678;2023-07-30T10:02:14;2.38;;;1.30;;
46745;SDS011;32493;50.514;9.678;2023-07-30T10:04:22;2.13;;;1.40;;
46745;SDS011;32493;50.514;9.678;2023-07-30T10:06:29;2.75;;;1.35;;
46745;SDS011;32493;50.514;9.678;2023-07-30T10:08:41;4.60;;;1.40;;
46745;SDS011;32493;50.514;9.678;2023-07-30T10:10:48;3.08;;;1.50;;
46745;SDS011;32493;50.514;9.678;2023-07-30T10:12:56;4.95;;;1.20;;
46745;SDS011;32493;50.514;9.678;2023-07-30T10:15:05;3.53;;;1.10;;
46745;SDS011;32493;50.514;9.678;2023-07-30T10:17:15;2.28;;;1.23;;
46745;SDS011;32493;50.514;9.678;2023-07-30T10:19:22;1.90;;;1.30;;
46745;SDS011;32493;50.514;9.678;2023-07-30T10:21:28;2.47;;;1.33;;
46745;SDS011;32493;50.514;9.678;2023-07-30T10:23:43;3.55;;;1.42;;
46745;SDS011;32493;50.514;9.678;2023-07-30T10:25:52;1.80;;;1.17;;
46745;SDS011;32493;50.514;9.678;2023-07-30T10:27:57;2.50;;;0.93;;
46745;SDS011;32493;50.514;9.678;2023-07-30T10:30:13;5.82;;;1.90;;
46745;SDS011;32493;50.514;9.678;2023-07-30T10:32:20;3.70;;;2.00;;
46745;SDS011;32493;50.514;9.678;2023-07-30T10:34:26;1.58;;;1.00;;
46745;SDS011;32493;50.514;9.678;2023-07-30T10:36:50;2.67;;;0.98;;
46745;SDS011;32493;50.514;9.678;2023-07-30T10:39:01;1.30;;;1.10;;
46745;SDS011;32493;50.514;9.678;2023-07-30T10:41:21;1.70;;;1.10;;
46745;SDS011;32493;50.514;9.678;2023-07-30T10:43:27;2.58;;;1.30;;
46745;SDS011;32493;50.514;9.678;2023-07-30T10:45:33;3.05;;;1.50;;
46745;SDS011;32493;50.514;9.678;2023-07-30T10:47:41;2.33;;;1.20;;
46745;SDS011;32493;50.514;9.678;2023-07-30T10:49:47;3.22;;;1.20;;
46745;SDS011;32493;50.514;9.678;2023-07-30T10:51:55;3.17;;;1.45;;
46745;SDS011;32493;50.514;9.678;2023-07-30T10:54:02;2.70;;;1.50;;
46745;SDS011;32493;50.514;9.678;2023-07-30T10:56:12;1.98;;;1.30;;
46745;SDS011;32493;50.514;9.678;2023-07-30T10:58:18;1.92;;;1.10;;
46745;SDS011;32493;50.514;9.678;2023-07-30T11:00:26;3.13;;;1.67;;
46745;SDS011;32493;50.514;9.678;2023-07-30T11:02:36;2.47;;;1.45;;
46745;SDS011;32493;50.514;9.678;2023-07-30T11:04:42;2.38;;;1.20;;
46745;SDS011;32493;50.514;9.678;2023-07-30T11:06:45;3.97;;;1.77;;
46745;SDS011;32493;50.514;9.678;2023-07-30T11:08:51;3.97;;;1.50;;
46745;SDS011;32493;50.514;9.678;2023-07-30T11:10:57;2.88;;;1.33;;
46745;SDS011;32493;50.514;9.678;2023-07-30T11:13:04;1.85;;;1.48;;
46745;SDS011;32493;50.514;9.678;2023-07-30T11:15:11;2.33;;;1.40;;
46745;SDS011;32493;50.514;9.678;2023-07-30T11:17:20;3.65;;;1.48;;
46745;SDS011;32493;50.514;9.678;2023-07-30T11:19:32;3.25;;;1.30;;
46745;SDS011;32493;50.514;9.678;2023-07-30T11:21:43;3.55;;;1.20;;
46745;SDS011;32493;50.514;9.678;2023-07-30T11:23:52;2.85;;;1.40;;
46745;SDS011;32493;50.514;9.678;2023-07-30T11:26:00;11.88;;;1.30;;
46745;SDS011;32493;50.514;9.678;2023-07-30T11:28:07;7.03;;;1.35;;
46745;SDS011;32493;50.514;9.678;2023-07-30T11:30:14;10.82;;;1.83;;
46745;SDS011;32493;50.514;9.678;2023-07-30T11:32:19;2.30;;;0.70;;
46745;SDS011;32493;50.514;9.678;2023-07-30T11:34:27;1.63;;;1.00;;
46745;SDS011;32493;50.514;9.678;2023-07-30T11:36:42;3.05;;;0.85;;
46745;SDS011;32493;50.514;9.678;2023-07-30T11:38:49;3.50;;;0.65;;
46745;SDS011;32493;50.514;9.678;2023-07-30T11:40:55;0.85;;;0.60;;
46745;SDS011;32493;50.514;9.678;2023-07-30T11:42:59;2.20;;;0.50;;
46745;SDS011;32493;50.514;9.678;2023-07-30T11:45:18;1.70;;;0.52;;
46745;SDS011;32493;50.514;9.678;2023-07-30T11:47:29;0.47;;;0.30;;
46745;SDS011;32493;50.514;9.678;2023-07-30T11:49:41;1.83;;;0.50;;
46745;SDS011;32493;50.514;9.678;2023-07-30T11:52:06;2.78;;;1.08;;
46745;SDS011;32493;50.514;9.678;2023-07-30T11:54:18;1.33;;;0.70;;
46745;SDS011;32493;50.514;9.678;2023-07-30T11:56:27;1.40;;;0.70;;
46745;SDS011;32493;50.514;9.678;2023-07-30T11:58:37;2.45;;;0.80;;
46745;SDS011;32493;50.514;9.678;2023-07-30T12:00:41;3.38;;;0.80;;
46745;SDS011;32493;50.514;9.678;2023-07-30T12:02:49;3.10;;;0.50;;
46745;SDS011;32493;50.514;9.678;2023-07-30T12:04:54;1.50;;;0.90;;
46745;SDS011;32493;50.514;9.678;2023-07-30T12:07:20;7.13;;;0.98;;
46745;SDS011;32493;50.514;9.678;2023-07-30T12:09:27;1.35;;;0.80;;
46745;SDS011;32493;50.514;9.678;2023-07-30T12:11:46;6.43;;;1.15;;
46745;SDS011;32493;50.514;9.678;2023-07-30T12:13:54;3.28;;;0.90;;
46745;SDS011;32493;50.514;9.678;2023-07-30T12:16:03;3.90;;;1.40;;
46745;SDS011;32493;50.514;9.678;2023-07-30T12:18:07;3.35;;;0.98;;
46745;SDS011;32493;50.514;9.678;2023-07-30T12:20:14;2.10;;;1.00;;
46745;SDS011;32493;50.514;9.678;2023-07-30T12:22:25;3.15;;;1.38;;
46745;SDS011;32493;50.514;9.678;2023-07-30T12:24:36;2.67;;;0.93;;
46745;SDS011;32493;50.514;9.678;2023-07-30T12:26:42;3.50;;;1.20;;
46745;SDS011;32493;50.514;9.678;2023-07-30T12:28:51;2.30;;;0.77;;
46745;SDS011;32493;50.514;9.678;2023-07-30T12:30:58;1.40;;;0.80;;
46745;SDS011;32493;50.514;9.678;2023-07-30T12:33:08;2.78;;;0.98;;
46745;SDS011;32493;50.514;9.678;2023-07-30T12:35:17;3.00;;;0.82;;
46745;SDS011;32493;50.514;9.678;2023-07-30T12:37:26;3.00;;;0.90;;
46745;SDS011;32493;50.514;9.678;2023-07-30T12:39:39;2.35;;;1.25;;
46745;SDS011;32493;50.514;9.678;2023-07-30T12:41:44;2.15;;;1.00;;
46745;SDS011;32493;50.514;9.678;2023-07-30T12:43:55;3.70;;;1.08;;
46745;SDS011;32493;50.514;9.678;2023-07-30T12:46:01;5.18;;;0.90;;
46745;SDS011;32493;50.514;9.678;2023-07-30T12:48:09;2.85;;;0.85;;
46745;SDS011;32493;50.514;9.678;2023-07-30T12:50:15;3.88;;;1.30;;
46745;SDS011;32493;50.514;9.678;2023-07-30T12:52:19;3.05;;;1.10;;
46745;SDS011;32493;50.514;9.678;2023-07-30T12:54:29;3.55;;;1.05;;